Time;durP1;ratioP1;P1;durP2;ratioP2;P2;SDS_P1;SDS_P2;PMS_P1;PMS_P2;Temp;Humidity;BMP_temperature;BMP_pressure;BME280_temperature;BME280_humidity;BME280_pressure;Samples;Min_cycle;Max_cycle;Signal;HPM_P1;HPM_P2
2021/11/11 00:00:40;;;;;;;21.20;13.98;;;;;;;4.44;82.11;96270.22;5037838;28;20069;-50
2021/11/11 00:03:07;;;;;;;18.83;13.55;;;;;;;4.32;82.61;96259.91;5047862;28;20504;-51
2021/11/11 00:05:35;;;;;;;19.80;13.82;;;;;;;4.29;82.04;96243.56;5048964;28;20037;-52
2021/11/11 00:08:02;;;;;;;20.20;13.93;;;;;;;4.16;82.75;96247.72;5038551;28;20041;-50
2021/11/11 00:10:30;;;;;;;18.38;13.70;;;;;;;4.18;82.12;96237.53;5049898;28;20401;-50
2021/11/11 00:12:58;;;;;;;20.55;14.18;;;;;;;4.30;82.14;96234.47;5052117;28;20840;-51
2021/11/11 00:15:26;;;;;;;23.05;15.25;;;;;;;4.37;81.28;96233.03;5064748;28;20037;-51
2021/11/11 00:17:53;;;;;;;26.88;14.57;;;;;;;4.40;81.89;96229.00;5061614;28;20124;-53
2021/11/11 00:20:24;;;;;;;19.95;14.85;;;;;;;4.53;80.82;96240.91;5065183;28;20416;-51
2021/11/11 00:22:52;;;;;;;21.73;14.68;;;;;;;4.62;79.79;96228.47;5052134;28;20063;-51
2021/11/11 00:25:21;;;;;;;21.08;13.98;;;;;;;4.53;80.23;96246.28;5048869;28;20064;-51
2021/11/11 00:27:48;;;;;;;21.88;14.48;;;;;;;4.36;81.08;96247.53;5055478;28;20052;-50
2021/11/11 00:30:17;;;;;;;19.23;13.88;;;;;;;4.35;80.57;96234.41;5047429;28;20053;-51
2021/11/11 00:32:50;;;;;;;17.98;13.48;;;;;;;4.32;80.60;96233.13;5058037;28;20470;-51
2021/11/11 00:35:23;;;;;;;21.33;15.00;;;;;;;4.37;82.16;96246.44;5040008;28;20064;-50
2021/11/11 00:37:51;;;;;;;22.55;14.50;;;;;;;4.31;81.64;96252.13;5064447;28;20055;-52
2021/11/11 00:40:19;;;;;;;22.63;15.70;;;;;;;4.30;82.03;96248.66;5064834;28;20044;-50
2021/11/11 00:42:48;;;;;;;19.70;14.25;;;;;;;4.36;80.32;96246.72;5054905;28;20534;-53
2021/11/11 00:45:16;;;;;;;24.02;15.23;;;;;;;4.48;80.35;96243.63;5052578;28;20075;-49
2021/11/11 00:47:44;;;;;;;22.33;15.20;;;;;;;4.25;81.35;96246.03;5053273;28;20066;-50
2021/11/11 00:50:13;;;;;;;19.55;14.90;;;;;;;4.38;81.09;96250.69;5052891;28;20227;-51
2021/11/11 00:52:40;;;;;;;20.08;15.20;;;;;;;4.24;81.58;96228.38;5052402;28;20049;-51
2021/11/11 00:55:07;;;;;;;23.65;15.43;;;;;;;4.14;82.06;96239.19;5052492;28;20099;-49
2021/11/11 00:57:45;;;;;;;20.15;15.48;;;;;;;4.05;82.65;96236.31;5052215;28;20494;-50
2021/11/11 01:00:14;;;;;;;20.50;14.55;;;;;;;4.14;81.62;96239.19;5052794;28;20068;-50
2021/11/11 01:02:44;;;;;;;21.67;15.02;;;;;;;4.16;82.23;96240.50;5052060;28;20127;-52
2021/11/11 01:05:12;;;;;;;22.77;15.43;;;;;;;4.07;82.09;96228.81;5053860;28;20517;-50
2021/11/11 01:07:39;;;;;;;22.27;15.18;;;;;;;4.27;81.61;96237.72;5052283;28;20123;-54
2021/11/11 01:10:14;;;;;;;21.33;15.15;;;;;;;4.37;80.69;96233.03;5052483;28;20047;-50
2021/11/11 01:12:41;;;;;;;21.65;15.25;;;;;;;4.12;82.06;96233.31;5044818;28;20075;-50
2021/11/11 01:15:11;;;;;;;20.88;15.13;;;;;;;4.18;81.22;96230.28;5053149;28;20045;-50
2021/11/11 01:17:38;;;;;;;18.77;14.98;;;;;;;4.12;80.95;96230.63;5052948;28;20049;-52
2021/11/11 01:20:08;;;;;;;25.30;16.63;;;;;;;4.42;80.68;96238.34;5052278;28;20056;-53
2021/11/11 01:22:36;;;;;;;23.75;15.93;;;;;;;4.18;81.67;96254.41;5043030;28;20095;-54
2021/11/11 01:25:05;;;;;;;21.38;15.18;;;;;;;3.87;83.25;96255.78;5033524;28;20503;-53
2021/11/11 01:27:32;;;;;;;21.25;14.23;;;;;;;3.98;82.86;96263.41;5036106;28;20472;-50
2021/11/11 01:30:02;;;;;;;21.10;14.80;;;;;;;3.86;82.93;96256.84;5041616;28;20044;-50
2021/11/11 01:32:29;;;;;;;23.10;15.23;;;;;;;4.34;79.53;96265.75;5043038;28;20042;-50
2021/11/11 01:34:57;;;;;;;26.92;16.80;;;;;;;4.56;79.23;96256.44;5053112;28;20040;-53
2021/11/11 01:37:24;;;;;;;24.77;15.82;;;;;;;4.35;79.95;96253.16;5051559;28;20079;-53
2021/11/11 01:39:54;;;;;;;21.17;14.90;;;;;;;4.14;80.95;96237.31;5051754;28;20094;-50
2021/11/11 01:42:22;;;;;;;25.50;14.98;;;;;;;4.22;80.92;96241.22;5050843;28;20076;-49
2021/11/11 01:44:54;;;;;;;24.02;15.18;;;;;;;4.03;81.40;96232.31;5051605;28;20045;-49
2021/11/11 01:47:30;;;;;;;21.23;15.45;;;;;;;4.04;81.10;96233.94;5051399;28;20100;-51
2021/11/11 01:49:57;;;;;;;23.20;16.00;;;;;;;3.72;82.43;96235.28;5035470;28;20121;-50
2021/11/11 01:52:25;;;;;;;21.50;15.45;;;;;;;3.63;82.91;96234.28;5050957;28;20128;-50
2021/11/11 01:54:53;;;;;;;21.13;14.68;;;;;;;3.60;82.57;96232.16;5034409;28;20140;-51
2021/11/11 01:57:25;;;;;;;20.63;14.98;;;;;;;3.69;82.32;96227.81;5031968;28;20053;-49
2021/11/11 01:59:58;;;;;;;23.10;15.60;;;;;;;3.88;81.59;96209.97;5051472;28;20052;-50
2021/11/11 02:02:41;;;;;;;24.40;16.70;;;;;;;3.99;81.70;96219.50;5049790;28;20624;-50
2021/11/11 02:05:15;;;;;;;21.83;15.80;;;;;;;3.85;81.53;96209.75;5051602;28;20433;-51
2021/11/11 02:07:44;;;;;;;24.02;16.27;;;;;;;4.19;81.03;96209.66;5051164;28;20379;-50
2021/11/11 02:10:12;;;;;;;19.02;15.02;;;;;;;4.24;80.48;96212.28;5051265;28;20033;-50
2021/11/11 02:12:46;;;;;;;24.85;15.93;;;;;;;3.98;80.27;96204.53;5040137;28;20087;-51
2021/11/11 02:15:16;;;;;;;22.50;15.40;;;;;;;3.85;80.87;96193.69;5051327;28;20044;-51
2021/11/11 02:17:44;;;;;;;22.80;15.77;;;;;;;3.89;81.11;96197.38;5050977;28;20117;-48
2021/11/11 02:20:23;;;;;;;23.35;15.07;;;;;;;3.81;81.28;96200.69;5052295;28;20132;-49
2021/11/11 02:23:10;;;;;;;23.23;15.55;;;;;;;3.83;81.26;96199.31;5036019;28;20049;-49
2021/11/11 02:25:56;;;;;;;24.17;15.70;;;;;;;3.91;81.09;96193.34;5051994;28;20041;-52
2021/11/11 02:28:28;;;;;;;20.85;15.35;;;;;;;3.83;81.22;96193.94;5050707;28;20657;-52
2021/11/11 02:30:56;;;;;;;22.85;16.15;;;;;;;3.89;81.18;96189.34;5050777;28;20036;-52
2021/11/11 02:33:56;;;;;;;21.77;15.70;;;;;;;3.75;81.05;96192.69;5040840;28;20052;-51
2021/11/11 02:36:51;;;;;;;;;;;;;;;3.92;80.06;96202.19;5050184;28;20068;-50
2021/11/11 02:39:18;;;;;;;20.38;14.90;;;;;;;3.83;80.73;96203.88;5050941;28;19931;-52
2021/11/11 02:41:46;;;;;;;22.77;15.35;;;;;;;3.71;81.14;96205.06;5044254;28;20461;-51
2021/11/11 02:44:16;;;;;;;21.77;15.20;;;;;;;3.82;79.97;96213.78;5030566;28;20495;-52
2021/11/11 02:46:43;;;;;;;22.40;14.90;;;;;;;4.04;78.49;96201.81;5031269;28;20626;-50
2021/11/11 02:49:10;;;;;;;21.50;16.00;;;;;;;4.16;79.82;96204.88;5050745;28;20041;-50
2021/11/11 02:51:37;;;;;;;24.73;17.73;;;;;;;4.65;78.20;96187.72;5036626;28;20128;-50
2021/11/11 02:54:04;;;;;;;23.23;16.58;;;;;;;4.53;78.53;96177.41;5039637;28;20526;-50
2021/11/11 02:56:33;;;;;;;21.65;16.00;;;;;;;4.56;79.45;96176.81;5031620;28;20048;-50
2021/11/11 02:59:00;;;;;;;22.55;16.52;;;;;;;4.82;78.48;96174.59;5050521;28;20107;-50
2021/11/11 03:01:27;;;;;;;22.85;15.38;;;;;;;4.57;78.06;96167.69;5049654;28;20124;-51
2021/11/11 03:03:54;;;;;;;21.70;14.93;;;;;;;4.44;78.76;96171.88;5051258;28;20037;-49
2021/11/11 03:06:23;;;;;;;20.98;14.90;;;;;;;4.25;79.38;96192.44;5050884;28;20071;-49
2021/11/11 03:08:50;;;;;;;24.42;14.82;;;;;;;4.41;79.40;96188.50;5051467;28;20049;-49
2021/11/11 03:11:17;;;;;;;25.23;14.38;;;;;;;4.20;79.66;96204.03;5063329;28;20053;-48
2021/11/11 03:13:56;;;;;;;22.08;15.05;;;;;;;4.54;77.69;96208.47;5049974;28;20098;-49
2021/11/11 03:16:24;;;;;;;20.50;14.07;;;;;;;4.58;77.50;96201.47;5050626;28;20047;-51
2021/11/11 03:18:51;;;;;;;21.00;14.52;;;;;;;4.03;79.51;96210.91;5042738;28;20045;-49
2021/11/11 03:21:18;;;;;;;23.35;14.75;;;;;;;4.01;79.60;96210.41;5051447;28;20044;-50
2021/11/11 03:23:45;;;;;;;21.30;14.07;;;;;;;3.77;80.48;96205.00;5041881;28;20107;-51
2021/11/11 03:26:12;;;;;;;20.85;15.35;;;;;;;4.33;77.88;96215.16;5048850;28;20045;-53
2021/11/11 03:28:43;;;;;;;25.05;14.35;;;;;;;4.08;78.74;96219.69;5049954;28;20451;-52
2021/11/11 03:31:16;;;;;;;20.30;13.77;;;;;;;4.40;77.26;96229.00;5046370;28;20038;-50
2021/11/11 03:33:44;;;;;;;19.55;13.70;;;;;;;4.08;78.86;96226.94;5029985;28;20450;-50
2021/11/11 03:36:11;;;;;;;22.08;14.18;;;;;;;4.29;78.32;96227.50;5032711;28;20135;-49
2021/11/11 03:38:38;;;;;;;23.95;14.15;;;;;;;4.62;76.46;96223.13;5046889;28;20045;-52
2021/11/11 03:41:05;;;;;;;22.27;15.27;;;;;;;4.58;76.21;96222.09;5048102;28;20053;-49
2021/11/11 03:43:34;;;;;;;18.50;12.98;;;;;;;4.30;76.89;96235.25;5049638;28;20410;-52
2021/11/11 03:46:12;;;;;;;19.13;13.25;;;;;;;3.98;77.69;96225.94;5050149;28;20072;-49
2021/11/11 03:48:41;;;;;;;18.02;13.65;;;;;;;3.71;78.93;96231.03;5031506;28;20056;-52
2021/11/11 03:51:09;;;;;;;21.40;12.98;;;;;;;3.42;80.38;96228.31;5034028;28;20095;-50
2021/11/11 03:53:37;;;;;;;19.55;13.38;;;;;;;3.02;81.86;96233.66;5043023;28;20045;-50
2021/11/11 03:56:06;;;;;;;19.90;12.57;;;;;;;2.87;82.74;96233.72;5033929;28;20418;-49
2021/11/11 03:58:33;;;;;;;18.80;12.95;;;;;;;3.04;82.46;96228.81;5048568;28;20041;-53
2021/11/11 04:01:00;;;;;;;21.90;13.23;;;;;;;2.99;83.05;96230.69;5053892;28;20056;-50
2021/11/11 04:03:28;;;;;;;20.27;12.88;;;;;;;3.13;82.13;96230.91;5041848;28;20395;-52
2021/11/11 04:05:55;;;;;;;20.48;13.20;;;;;;;3.20;80.31;96223.38;5049127;28;20123;-49
2021/11/11 04:08:30;;;;;;;18.65;13.35;;;;;;;3.14;81.21;96227.94;5053342;28;20120;-50
2021/11/11 04:11:01;;;;;;;23.45;15.00;;;;;;;2.74;82.75;96237.00;5053470;28;20045;-49
2021/11/11 04:13:28;;;;;;;17.30;12.30;;;;;;;2.47;84.71;96232.84;5064277;28;20482;-48
2021/11/11 04:15:56;;;;;;;20.92;12.18;;;;;;;2.66;83.96;96221.53;5052679;28;20053;-51
2021/11/11 04:18:28;;;;;;;19.98;12.23;;;;;;;2.77;83.08;96239.13;5053445;28;20053;-50
2021/11/11 04:20:56;;;;;;;19.02;13.00;;;;;;;2.71;83.42;96229.53;5050774;28;20541;-49
2021/11/11 04:23:24;;;;;;;29.08;13.63;;;;;;;3.16;81.50;96243.72;5035681;28;20037;-51
2021/11/11 04:28:35;;;;;;;22.55;13.10;;;;;;;3.37;81.38;96239.81;5052842;28;20107;-49
2021/11/11 04:31:07;;;;;;;25.30;14.27;;;;;;;2.85;83.26;96235.06;5052709;28;20041;-52
2021/11/11 04:33:37;;;;;;;23.80;13.38;;;;;;;2.53;84.97;96231.72;5052951;28;20450;-49
2021/11/11 04:36:26;;;;;;;19.73;12.50;;;;;;;2.17;87.41;96239.06;5053108;28;20052;-50
2021/11/11 05:02:51;;;;;;;18.67;13.25;;;;;;;3.11;82.53;96265.13;5052235;28;20091;-50
2021/11/11 05:05:19;;;;;;;39.85;12.77;;;;;;;3.13;83.15;96263.00;5032656;28;20049;-47
2021/11/11 05:07:47;;;;;;;45.20;13.05;;;;;;;3.53;80.66;96256.56;5042707;28;20094;-51
2021/11/11 05:10:15;;;;;;;100.88;14.55;;;;;;;3.63;80.33;96251.13;5052428;28;20037;-51
2021/11/11 05:12:45;;;;;;;64.38;13.25;;;;;;;3.87;79.40;96245.88;5051119;28;20048;-48
2021/11/11 05:15:12;;;;;;;17.10;11.70;;;;;;;3.31;80.87;96248.94;5053510;28;20044;-51
2021/11/11 05:17:41;;;;;;;16.10;10.93;;;;;;;2.88;83.29;96245.22;5051709;28;20123;-50
2021/11/11 05:20:09;;;;;;;20.20;11.75;;;;;;;2.38;86.57;96245.16;5048789;28;20045;-48
2021/11/11 05:22:37;;;;;;;22.08;11.20;;;;;;;2.05;88.64;96254.56;5039803;28;20144;-48
2021/11/11 05:25:05;;;;;;;35.85;12.23;;;;;;;1.83;90.83;96252.19;5033800;28;20052;-49
2021/11/11 05:27:32;;;;;;;17.95;11.70;;;;;;;1.91;90.65;96254.31;5039284;28;20033;-50
2021/11/11 05:29:59;;;;;;;18.98;11.70;;;;;;;2.14;90.03;96260.16;5053252;28;20486;-52
2021/11/11 05:32:26;;;;;;;15.02;10.65;;;;;;;2.31;88.51;96255.31;5050860;28;20068;-49
2021/11/11 05:34:53;;;;;;;52.28;13.10;;;;;;;3.18;84.62;96268.28;5050372;28;20427;-51
2021/11/11 05:37:21;;;;;;;53.28;13.65;;;;;;;3.06;83.80;96265.97;5018427;28;20060;-52
2021/11/11 05:39:48;;;;;;;40.00;14.43;;;;;;;3.20;83.11;96266.16;5055741;28;20391;-53
2021/11/11 05:42:15;;;;;;;16.25;11.02;;;;;;;2.79;84.13;96274.38;5063479;28;20526;-52
2021/11/11 05:44:44;;;;;;;15.50;11.88;;;;;;;2.46;86.22;96268.59;5058398;28;20498;-51
2021/11/11 05:47:11;;;;;;;20.52;12.70;;;;;;;2.64;86.90;96266.44;5066035;28;20131;-51
2021/11/11 05:49:38;;;;;;;18.65;11.65;;;;;;;2.95;85.20;96277.78;5066801;28;20056;-51
2021/11/11 05:52:08;;;;;;;36.17;14.63;;;;;;;3.03;84.46;96283.34;5051805;28;20055;-50
2021/11/11 05:54:37;;;;;;;29.02;14.02;;;;;;;2.68;85.24;96284.31;5060897;28;20040;-48
2021/11/11 05:57:06;;;;;;;27.48;11.98;;;;;;;2.67;86.22;96288.06;5069845;28;20040;-48
2021/11/11 05:59:38;;;;;;;20.23;12.05;;;;;;;2.43;87.42;96290.50;5064533;28;20045;-50
2021/11/11 06:02:08;;;;;;;21.67;12.30;;;;;;;2.24;88.74;96279.63;5042915;28;20041;-56
2021/11/11 06:04:35;;;;;;;18.85;11.73;;;;;;;2.47;87.84;96291.59;5049471;28;20128;-52
2021/11/11 06:07:07;;;;;;;16.77;10.75;;;;;;;2.40;88.01;96288.38;5050383;28;20125;-50
2021/11/11 06:09:37;;;;;;;17.02;10.88;;;;;;;2.45;88.08;96283.03;5050772;28;20040;-49
2021/11/11 06:12:05;;;;;;;14.60;10.77;;;;;;;2.49;87.90;96288.63;5046342;28;20034;-48
2021/11/11 06:14:33;;;;;;;15.75;11.00;;;;;;;2.70;87.30;96284.03;5052282;28;20044;-52
2021/11/11 06:17:06;;;;;;;15.40;11.02;;;;;;;2.69;87.44;96279.75;5051571;28;20513;-50
2021/11/11 06:19:43;;;;;;;32.45;13.05;;;;;;;3.33;84.82;96276.22;5031245;28;20507;-53
2021/11/11 06:22:10;;;;;;;57.78;13.77;;;;;;;3.41;83.80;96283.69;5044919;28;20119;-53
2021/11/11 06:24:37;;;;;;;47.80;13.50;;;;;;;3.38;84.11;96297.59;5050674;28;20041;-50
2021/11/11 06:27:04;;;;;;;49.00;14.32;;;;;;;3.57;82.94;96296.94;5048788;28;20059;-50
2021/11/11 06:29:33;;;;;;;30.13;13.05;;;;;;;3.34;83.46;96295.75;5038288;28;20066;-49
2021/11/11 06:32:02;;;;;;;21.95;12.05;;;;;;;3.10;84.32;96295.63;5043817;28;20095;-52
2021/11/11 06:34:50;;;;;;;28.85;12.95;;;;;;;3.42;83.89;96305.88;5031173;28;20049;-52
2021/11/11 06:37:17;;;;;;;90.72;13.45;;;;;;;3.61;84.06;96311.38;5047146;28;20049;-51
2021/11/11 06:39:44;;;;;;;19.88;11.25;;;;;;;3.48;83.56;96305.56;5050805;28;20036;-51
2021/11/11 06:42:11;;;;;;;41.25;11.68;;;;;;;2.72;87.05;96295.25;5047263;28;20041;-50
2021/11/11 06:44:42;;;;;;;32.35;12.05;;;;;;;2.40;89.33;96303.63;5050338;28;20041;-50
2021/11/11 06:47:09;;;;;;;20.00;11.88;;;;;;;2.57;89.18;96302.25;5051582;28;20048;-51
2021/11/11 06:49:36;;;;;;;18.27;11.20;;;;;;;2.44;89.09;96296.66;5050568;28;20037;-51
2021/11/11 06:52:04;;;;;;;18.50;11.02;;;;;;;2.52;89.79;96299.56;5044689;28;20052;-51
2021/11/11 06:54:32;;;;;;;40.10;12.45;;;;;;;2.91;87.56;96303.47;5043149;28;20120;-52
2021/11/11 06:56:59;;;;;;;18.88;12.27;;;;;;;2.79;87.23;96309.94;5051456;28;20041;-52
2021/11/11 06:59:29;;;;;;;21.80;11.63;;;;;;;2.66;88.00;96304.34;5033038;28;20102;-54
2021/11/11 07:01:57;;;;;;;20.77;11.70;;;;;;;2.50;88.68;96304.41;5044152;28;20124;-52
2021/11/11 07:04:26;;;;;;;18.70;13.02;;;;;;;2.37;89.46;96310.28;5045897;28;20075;-51
2021/11/11 07:06:53;;;;;;;18.17;12.98;;;;;;;2.44;89.75;96313.50;5050337;28;20132;-50
2021/11/11 07:09:22;;;;;;;19.52;12.45;;;;;;;2.57;89.26;96315.59;5049520;28;20083;-50
2021/11/11 07:11:49;;;;;;;17.20;11.70;;;;;;;2.70;88.69;96319.56;5050183;28;20049;-53
2021/11/11 07:14:17;;;;;;;17.38;11.55;;;;;;;3.61;83.90;96306.03;5048791;28;20116;-50
2021/11/11 07:16:45;;;;;;;15.35;10.88;;;;;;;3.34;83.96;96306.44;5051349;28;20454;-50
2021/11/11 07:19:13;;;;;;;19.55;11.43;;;;;;;3.29;85.00;96307.28;5049373;28;20564;-51
2021/11/11 07:21:40;;;;;;;15.32;10.48;;;;;;;3.14;85.25;96307.34;5050359;28;20577;-53
2021/11/11 07:24:07;;;;;;;15.40;10.07;;;;;;;2.82;86.97;96321.91;5052922;28;20045;-54
2021/11/11 07:26:34;;;;;;;13.90;9.45;;;;;;;2.61;88.34;96320.41;5055446;28;20128;-51
2021/11/11 07:29:02;;;;;;;17.08;10.30;;;;;;;3.21;86.88;96318.53;5055736;28;20136;-51
2021/11/11 07:31:30;;;;;;;15.60;10.15;;;;;;;3.17;86.28;96325.53;5055553;28;20047;-48
2021/11/11 07:33:57;;;;;;;16.70;10.48;;;;;;;3.32;86.71;96335.34;5054478;28;20098;-48
2021/11/11 07:36:25;;;;;;;18.88;10.57;;;;;;;4.11;82.14;96344.97;5074333;28;20069;-48
2021/11/11 07:38:53;;;;;;;19.08;11.98;;;;;;;4.25;81.40;96347.81;5065711;28;20056;-49
2021/11/11 07:41:20;;;;;;;15.93;10.77;;;;;;;3.80;82.72;96357.00;5052934;28;20045;-52
2021/11/11 07:43:48;;;;;;;14.40;9.90;;;;;;;3.72;83.49;96355.72;5051621;28;20402;-51
2021/11/11 07:46:16;;;;;;;14.93;9.52;;;;;;;3.56;84.26;96356.88;5054214;28;20051;-51
2021/11/11 07:48:43;;;;;;;17.58;10.73;;;;;;;3.61;85.31;96354.19;5052736;28;20094;-50
2021/11/11 07:51:10;;;;;;;15.82;9.38;;;;;;;3.60;85.06;96347.22;5041130;28;20038;-51
2021/11/11 07:53:37;;;;;;;14.68;8.98;;;;;;;3.62;85.11;96350.44;5044760;28;20555;-52
2021/11/11 07:56:05;;;;;;;13.70;9.65;;;;;;;4.06;83.52;96345.00;5054872;28;20132;-51
2021/11/11 07:58:32;;;;;;;17.25;9.52;;;;;;;3.98;84.22;96349.09;5053363;28;20114;-52
2021/11/11 08:00:59;;;;;;;16.13;10.05;;;;;;;3.82;84.77;96344.94;5053695;28;20473;-54
2021/11/11 08:03:27;;;;;;;12.20;8.68;;;;;;;3.60;85.69;96361.38;5053118;28;20117;-51
2021/11/11 08:05:55;;;;;;;14.57;9.23;;;;;;;3.63;86.18;96346.66;5052886;28;20095;-52
2021/11/11 08:08:22;;;;;;;16.40;9.55;;;;;;;3.97;85.52;96347.50;5048227;28;20052;-54
2021/11/11 08:10:50;;;;;;;16.65;10.25;;;;;;;4.51;83.01;96348.38;5060937;28;20051;-54
2021/11/11 08:13:18;;;;;;;14.43;10.52;;;;;;;4.74;81.79;96352.16;5057569;28;20091;-52
2021/11/11 08:15:45;;;;;;;14.20;9.52;;;;;;;4.73;81.84;96363.16;5052870;28;20378;-50
2021/11/11 08:18:12;;;;;;;16.23;10.63;;;;;;;4.52;82.72;96355.34;5054463;28;20055;-51
2021/11/11 08:20:39;;;;;;;12.27;8.90;;;;;;;4.25;83.71;96347.00;5053321;28;20044;-50
2021/11/11 08:23:07;;;;;;;13.23;9.57;;;;;;;3.98;85.86;96341.06;5050584;28;20049;-51
2021/11/11 08:25:35;;;;;;;12.35;9.27;;;;;;;4.00;85.92;96346.16;5056244;28;20122;-50
2021/11/11 08:28:02;;;;;;;16.35;9.98;;;;;;;4.14;85.90;96341.75;5065092;28;20148;-51
2021/11/11 08:30:29;;;;;;;13.50;9.80;;;;;;;4.62;83.48;96347.19;5059188;28;20037;-56
2021/11/11 08:32:56;;;;;;;14.50;10.30;;;;;;;4.49;84.43;96341.72;5052689;28;20072;-51
2021/11/11 08:35:25;;;;;;;14.93;9.55;;;;;;;4.34;85.62;96343.44;5058732;28;20103;-54
2021/11/11 08:37:54;;;;;;;11.70;9.40;;;;;;;4.17;86.54;96340.38;5051592;28;20127;-50
2021/11/11 08:40:21;;;;;;;13.02;9.13;;;;;;;4.12;87.17;96337.75;5053115;28;20029;-51
2021/11/11 08:42:53;;;;;;;17.95;10.93;;;;;;;4.85;85.12;96334.88;5052051;28;20438;-52
2021/11/11 08:45:22;;;;;;;15.17;9.60;;;;;;;4.67;84.56;96327.56;5063362;28;20116;-53
2021/11/11 08:47:50;;;;;;;14.88;10.65;;;;;;;5.07;83.95;96336.22;5053740;28;20033;-50
2021/11/11 08:50:18;;;;;;;15.35;11.07;;;;;;;5.36;82.40;96330.78;5064360;28;20036;-53
2021/11/11 08:52:48;;;;;;;17.00;11.95;;;;;;;5.42;81.80;96336.88;5050894;28;20106;-51
2021/11/11 08:55:17;;;;;;;14.73;11.45;;;;;;;5.24;83.06;96336.56;5034309;28;20164;-51
2021/11/11 08:57:44;;;;;;;18.27;11.35;;;;;;;5.02;84.76;96339.00;5051329;28;20137;-50
2021/11/11 09:00:18;;;;;;;19.63;11.95;;;;;;;5.44;82.54;96332.81;5051094;28;20145;-54
2021/11/11 09:02:49;;;;;;;15.25;11.40;;;;;;;5.55;81.88;96344.22;5046551;28;20518;-51
2021/11/11 09:05:17;;;;;;;17.42;12.40;;;;;;;5.51;81.72;96335.94;5049647;28;20037;-54
2021/11/11 09:07:45;;;;;;;18.60;12.57;;;;;;;5.42;82.34;96329.63;5053373;28;20045;-50
2021/11/11 09:10:15;;;;;;;17.42;11.65;;;;;;;5.19;83.85;96322.41;5063148;28;20068;-54
2021/11/11 09:12:42;;;;;;;19.52;12.75;;;;;;;5.65;82.37;96325.28;5050062;28;20079;-53
2021/11/11 09:15:13;;;;;;;16.98;12.25;;;;;;;5.75;81.82;96327.00;5052820;28;20128;-50
2021/11/11 09:17:41;;;;;;;15.70;11.35;;;;;;;5.31;83.82;96325.50;5049889;28;20118;-52
2021/11/11 09:20:11;;;;;;;16.35;11.35;;;;;;;5.03;85.19;96327.16;5042103;28;20410;-51
2021/11/11 09:22:39;;;;;;;15.23;10.27;;;;;;;5.02;86.05;96334.41;5051431;28;20045;-54
2021/11/11 09:25:09;;;;;;;17.83;11.00;;;;;;;4.98;85.99;96322.69;5048125;28;20068;-54
2021/11/11 09:27:38;;;;;;;14.45;10.90;;;;;;;4.99;86.39;96329.63;5050880;28;20052;-52
2021/11/11 09:30:09;;;;;;;14.95;11.40;;;;;;;5.20;86.12;96340.09;5053962;28;20414;-55
2021/11/11 09:32:37;;;;;;;15.35;11.40;;;;;;;5.26;85.44;96333.59;5053399;28;20045;-53
2021/11/11 09:35:05;;;;;;;17.88;11.77;;;;;;;5.95;82.87;96334.81;5044890;28;20379;-52
2021/11/11 09:37:33;;;;;;;16.05;11.50;;;;;;;5.62;83.84;96332.03;5046528;28;20060;-51
2021/11/11 09:40:03;;;;;;;14.45;10.63;;;;;;;5.57;84.22;96328.63;5048442;28;20044;-52
2021/11/11 09:42:30;;;;;;;18.50;12.75;;;;;;;6.03;82.89;96341.41;5049952;28;20100;-51
2021/11/11 09:44:57;;;;;;;15.07;11.30;;;;;;;5.87;83.41;96332.75;5057383;28;20056;-51
2021/11/11 09:47:25;;;;;;;17.30;12.88;;;;;;;5.79;83.55;96328.03;5045602;28;20136;-50
2021/11/11 09:49:52;;;;;;;18.52;11.70;;;;;;;5.71;84.28;96332.16;5046686;28;20049;-54
2021/11/11 09:52:20;;;;;;;15.48;11.27;;;;;;;5.74;84.28;96323.53;5051112;28;20051;-54
2021/11/11 10:00:18;;;;;;;16.98;12.70;;;;;;;6.60;81.34;96322.41;5054183;28;20045;-52
2021/11/11 10:02:46;;;;;;;18.48;13.27;;;;;;;7.02;78.74;96324.06;5047931;28;20162;-51
2021/11/11 10:05:13;;;;;;;19.98;13.63;;;;;;;7.14;78.10;96326.22;5052057;28;20037;-51
2021/11/11 10:07:40;;;;;;;19.38;13.15;;;;;;;6.81;79.34;96322.84;5051000;28;20481;-50
2021/11/11 10:10:07;;;;;;;18.95;12.48;;;;;;;6.89;78.84;96327.53;5049225;28;20052;-51
2021/11/11 10:12:35;;;;;;;16.70;13.13;;;;;;;7.18;78.07;96328.03;5050320;28;20068;-52
2021/11/11 10:15:10;;;;;;;22.52;13.50;;;;;;;7.21;78.66;96319.38;5059195;28;20091;-51
2021/11/11 10:17:42;;;;;;;20.15;13.57;;;;;;;7.50;77.24;96321.69;5051391;28;20135;-52
2021/11/11 10:20:11;;;;;;;18.30;12.95;;;;;;;7.47;77.07;96316.09;5046825;28;20468;-53
2021/11/11 10:22:41;;;;;;;15.82;11.50;;;;;;;7.11;78.99;96311.47;5050800;28;20505;-50
2021/11/11 10:25:12;;;;;;;18.60;12.70;;;;;;;7.47;77.85;96310.72;5042884;28;20094;-49
2021/11/11 10:27:44;;;;;;;17.38;12.02;;;;;;;7.20;79.06;96312.38;5051666;28;20137;-51
2021/11/11 10:30:34;;;;;;;15.50;12.10;;;;;;;7.71;76.79;96307.78;5041651;28;20029;-52
2021/11/11 10:33:13;;;;;;;21.48;12.85;;;;;;;7.72;76.66;96301.28;5047095;28;20123;-50
2021/11/11 10:35:44;;;;;;;17.10;13.05;;;;;;;7.51;77.34;96298.28;5056964;28;20041;-50
2021/11/11 10:38:18;;;;;;;20.45;12.98;;;;;;;7.55;76.86;96293.88;5051457;28;20057;-53
2021/11/11 10:40:52;;;;;;;15.98;12.50;;;;;;;7.81;77.18;96298.69;5023780;28;20053;-50
2021/11/11 10:43:22;;;;;;;;;;;;;;;7.75;76.63;96297.19;5062331;28;20098;-51
2021/11/11 10:45:53;;;;;;;18.70;13.18;;;;;;;7.76;77.46;96296.09;5055451;28;19920;-48
2021/11/11 10:48:25;;;;;;;18.52;13.43;;;;;;;8.17;74.67;96293.22;5050768;28;20390;-50
2021/11/11 10:50:57;;;;;;;19.95;13.20;;;;;;;8.37;73.98;96290.00;5045476;28;20572;-52
2021/11/11 10:53:30;;;;;;;16.98;14.00;;;;;;;8.15;74.87;96298.13;5045629;28;20121;-48
2021/11/11 10:56:00;;;;;;;18.17;13.00;;;;;;;8.46;73.06;96310.88;5044728;28;20159;-48
2021/11/11 10:58:31;;;;;;;17.27;13.43;;;;;;;8.20;74.83;96298.78;5050339;28;20766;-48
2021/11/11 11:01:00;;;;;;;19.60;12.88;;;;;;;8.33;75.34;96297.13;5053011;28;20055;-48
2021/11/11 11:03:33;;;;;;;21.15;13.05;;;;;;;8.49;73.92;96297.56;5052872;28;20048;-50
2021/11/11 11:06:00;;;;;;;18.60;13.50;;;;;;;8.75;73.87;96286.91;5050691;28;20049;-48
2021/11/11 11:08:37;;;;;;;16.65;12.88;;;;;;;8.88;74.04;96290.59;5051305;28;20047;-48
2021/11/11 11:11:18;;;;;;;18.58;12.20;;;;;;;9.09;73.07;96285.41;5050387;28;20052;-49
2021/11/11 11:14:06;;;;;;;18.83;12.80;;;;;;;9.35;70.22;96282.75;5048252;28;20572;-48
2021/11/11 11:16:35;;;;;;;21.77;12.85;;;;;;;9.55;69.90;96273.25;5042211;28;20083;-53
2021/11/11 11:19:10;;;;;;;15.82;11.85;;;;;;;9.69;71.03;96273.91;5048331;28;20064;-52
2021/11/11 11:21:45;;;;;;;18.27;12.82;;;;;;;9.95;68.83;96270.41;5044775;28;20116;-52
2021/11/11 11:24:32;;;;;;;15.93;12.60;;;;;;;9.96;67.00;96275.47;5047665;28;20041;-52
2021/11/11 11:27:05;;;;;;;15.65;12.05;;;;;;;10.07;67.05;96270.53;5050679;28;20053;-52
2021/11/11 11:29:41;;;;;;;;;;;;;;;10.26;67.70;96271.00;5056733;28;20056;-50
2021/11/11 11:32:18;;;;;;;21.25;12.73;;;;;;;10.57;66.28;96271.91;5046317;28;19929;-52
2021/11/11 11:34:48;;;;;;;17.55;14.02;;;;;;;10.80;66.88;96273.22;5049259;28;20045;-51
2021/11/11 11:37:18;;;;;;;16.30;13.00;;;;;;;11.08;66.51;96256.53;5050230;28;20045;-49
2021/11/11 11:39:50;;;;;;;21.15;14.00;;;;;;;11.41;65.97;96262.09;5048682;28;20164;-50
2021/11/11 11:42:26;;;;;;;18.52;15.32;;;;;;;11.24;65.35;96254.84;5047713;28;20048;-51
2021/11/11 11:45:07;;;;;;;25.20;15.32;;;;;;;10.98;65.13;96257.69;5057128;28;20106;-50
2021/11/11 11:47:51;;;;;;;21.65;14.00;;;;;;;11.14;66.57;96261.44;5050988;28;20110;-51
2021/11/11 11:50:25;;;;;;;;;;;;;;;11.28;64.82;96263.91;5045502;28;20454;-50
2021/11/11 11:53:02;;;;;;;21.20;15.30;;;;;;;11.33;64.54;96262.91;5049160;28;19920;-50
2021/11/11 12:30:06;;;;;;;17.85;14.63;;;;;;;11.11;67.00;96264.00;5056306;28;20124;-53
2021/11/11 12:40:15;;;;;;;18.13;14.93;;;;;;;10.29;70.49;96256.84;5060511;28;20178;-50
2021/11/11 12:42:55;;;;;;;17.58;14.00;;;;;;;9.92;71.56;96260.22;5068028;22;20055;-50
2021/11/11 12:45:26;;;;;;;16.48;13.55;;;;;;;9.72;72.46;96267.88;5072473;28;20064;-49
2021/11/11 12:48:01;;;;;;;21.30;14.75;;;;;;;9.76;71.70;96252.59;5073727;28;20053;-52
2021/11/11 12:50:37;;;;;;;20.60;14.70;;;;;;;9.46;72.88;96264.38;5068758;28;20527;-50
2021/11/11 12:53:13;;;;;;;17.05;14.07;;;;;;;9.54;72.82;96258.94;5068994;28;20047;-51